Time;durP1;ratioP1;P1;durP2;ratioP2;P2;SDS_P1;SDS_P2;PMS_P1;PMS_P2;Temp;Humidity;BMP_temperature;BMP_pressure;BME280_temperature;BME280_humidity;BME280_pressure;Samples;Min_cycle;Max_cycle;Signal;HPM_P1;HPM_P2
2023/07/15 00:01:35;;;;;;;5.85;2.90;;;;;;;24.34;58.71;94861.25;5002218;28;20210;-89
2023/07/15 00:04:02;;;;;;;3.45;3.13;;;;;;;24.31;59.51;94870.50;5013200;28;20253;-89
2023/07/15 00:06:28;;;;;;;3.35;3.05;;;;;;;24.30;59.10;94868.91;5029723;28;20296;-87
2023/07/15 00:08:55;;;;;;;3.65;2.90;;;;;;;24.30;59.23;94871.56;5029737;28;20222;-89
2023/07/15 00:11:28;;;;;;;3.35;2.90;;;;;;;24.25;60.06;94883.97;5010493;28;20647;-88
2023/07/15 00:13:56;;;;;;;4.35;3.08;;;;;;;24.25;59.56;94894.50;5009989;28;20199;-88
2023/07/15 00:16:23;;;;;;;3.00;2.80;;;;;;;24.24;60.03;94895.59;5009131;28;20233;-89
2023/07/15 00:18:51;;;;;;;3.20;3.00;;;;;;;24.25;60.32;94900.53;5008064;28;20234;-88
2023/07/15 00:21:22;;;;;;;2.97;2.78;;;;;;;24.18;60.46;94915.06;5009447;28;20213;-89
2023/07/15 00:23:52;;;;;;;2.90;2.70;;;;;;;24.15;61.14;94934.81;5009452;28;20198;-88
2023/07/15 00:26:26;;;;;;;3.88;2.75;;;;;;;24.13;61.20;94936.16;5000962;28;20207;-88
2023/07/15 00:28:53;;;;;;;2.92;2.70;;;;;;;24.10;62.28;94971.69;4991396;28;20219;-89
2023/07/15 00:31:21;;;;;;;3.90;3.00;;;;;;;24.13;61.51;94963.25;5009439;28;20563;-88
2023/07/15 00:33:48;;;;;;;5.22;2.90;;;;;;;24.23;61.53;94968.44;5007750;28;20605;-89
2023/07/15 00:36:17;;;;;;;3.03;2.83;;;;;;;24.27;61.46;94972.09;5009394;28;20199;-88
2023/07/15 00:38:44;;;;;;;3.10;2.80;;;;;;;24.22;61.90;94980.03;5008716;28;20258;-89
2023/07/15 00:41:19;;;;;;;3.33;2.63;;;;;;;24.13;62.26;94981.66;5009100;28;20214;-88
2023/07/15 00:43:52;;;;;;;2.95;2.75;;;;;;;24.09;62.70;94999.03;5009376;28;20210;-89
2023/07/15 00:46:31;;;;;;;4.18;3.10;;;;;;;24.10;62.75;94996.16;5009269;28;20210;-89
2023/07/15 00:49:02;;;;;;;3.13;2.83;;;;;;;24.06;63.07;95016.16;5007549;28;20247;-88
2023/07/15 00:51:31;;;;;;;5.20;2.70;;;;;;;23.94;63.56;95023.63;5007555;28;20302;-89
2023/07/15 00:53:58;;;;;;;3.35;2.58;;;;;;;23.92;63.49;95014.44;5008788;28;20214;-88
2023/07/15 00:56:27;;;;;;;3.05;2.83;;;;;;;23.93;63.20;95023.91;5009215;28;20211;-88
2023/07/15 00:58:54;;;;;;;3.63;2.83;;;;;;;23.93;63.58;95029.16;5008680;28;20223;-88
2023/07/15 01:01:21;;;;;;;3.00;2.80;;;;;;;23.96;63.24;95016.25;5008837;28;20607;-89
2023/07/15 01:03:48;;;;;;;3.33;2.85;;;;;;;23.98;63.29;95022.03;5009993;28;20210;-88
2023/07/15 01:06:15;;;;;;;3.33;2.90;;;;;;;23.96;63.60;95023.34;5014219;28;20202;-88
2023/07/15 01:08:42;;;;;;;3.05;2.85;;;;;;;23.97;63.36;95023.06;5009190;28;20226;-88
2023/07/15 01:11:10;;;;;;;2.88;2.67;;;;;;;24.00;63.41;95030.44;5008502;28;20205;-88
2023/07/15 01:13:37;;;;;;;6.55;3.35;;;;;;;24.03;63.31;95018.56;5008767;28;20222;-88
2023/07/15 01:16:04;;;;;;;3.20;2.97;;;;;;;23.99;63.65;95022.81;5009067;28;20202;-88
2023/07/15 01:18:35;;;;;;;3.45;2.78;;;;;;;23.97;63.65;95015.19;5008552;28;20229;-88
2023/07/15 01:21:04;;;;;;;3.55;3.00;;;;;;;23.96;63.66;95023.34;5007055;28;20210;-89
2023/07/15 01:23:32;;;;;;;3.22;2.83;;;;;;;23.96;63.73;95023.34;5007481;28;20216;-88
2023/07/15 01:25:58;;;;;;;3.47;3.15;;;;;;;23.89;64.37;95030.75;5005630;28;20210;-87
2023/07/15 01:28:25;;;;;;;3.00;2.70;;;;;;;23.86;64.49;95041.84;5008347;28;20215;-88
2023/07/15 01:30:51;;;;;;;3.90;2.90;;;;;;;23.89;64.16;95036.00;5007375;28;20199;-89
2023/07/15 01:33:18;;;;;;;3.05;2.85;;;;;;;23.89;64.08;95039.44;5007241;28;20195;-88
2023/07/15 01:35:47;;;;;;;2.90;2.70;;;;;;;23.87;64.53;95049.44;5008075;28;20202;-88
2023/07/15 01:38:14;;;;;;;4.88;2.55;;;;;;;23.88;64.42;95039.69;5006872;28;20276;-88
2023/07/15 01:40:42;;;;;;;3.40;2.60;;;;;;;23.89;64.54;95043.91;5008739;28;20203;-88
2023/07/15 01:43:09;;;;;;;2.55;2.35;;;;;;;23.89;64.24;95039.44;5007927;28;20198;-88
2023/07/15 01:45:36;;;;;;;5.55;2.90;;;;;;;23.89;64.26;95038.63;5008334;28;20199;-90
2023/07/15 01:48:04;;;;;;;2.85;2.65;;;;;;;23.88;64.12;95037.84;5008790;28;20466;-88
2023/07/15 01:50:31;;;;;;;2.60;2.50;;;;;;;23.82;64.66;95048.69;5010482;28;20202;-88
2023/07/15 01:52:58;;;;;;;2.65;2.45;;;;;;;23.83;64.50;95055.53;5012294;28;20211;-89
2023/07/15 01:55:25;;;;;;;2.72;2.45;;;;;;;23.84;64.44;95057.09;5010060;28;20203;-89
2023/07/15 01:57:53;;;;;;;2.92;2.70;;;;;;;23.84;64.76;95065.78;5012039;28;20261;-89
2023/07/15 02:00:20;;;;;;;2.85;2.60;;;;;;;23.85;64.38;95064.72;5012232;28;20297;-86
2023/07/15 02:02:47;;;;;;;2.70;2.50;;;;;;;23.83;64.50;95064.19;5011877;28;20232;-88
2023/07/15 02:05:13;;;;;;;3.55;2.80;;;;;;;23.73;65.25;95065.03;5022599;28;20194;-88
2023/07/15 02:07:40;;;;;;;3.90;3.00;;;;;;;23.68;65.46;95064.25;5012030;28;20226;-88
2023/07/15 02:10:07;;;;;;;3.03;2.83;;;;;;;23.64;65.22;95069.31;5009388;28;20210;-88
2023/07/15 02:12:34;;;;;;;2.60;2.40;;;;;;;23.66;65.69;95061.16;5011358;28;20202;-88
2023/07/15 02:15:03;;;;;;;2.88;2.67;;;;;;;23.72;65.16;95060.84;5012006;28;20260;-88
2023/07/15 02:17:29;;;;;;;2.90;2.70;;;;;;;23.73;65.19;95054.53;5011487;28;20289;-88
2023/07/15 02:19:57;;;;;;;3.78;2.80;;;;;;;23.69;65.83;95071.09;5011829;28;20692;-89
2023/07/15 02:22:23;;;;;;;3.28;2.80;;;;;;;23.59;66.40;95090.34;5011708;28;20206;-88
2023/07/15 02:24:50;;;;;;;2.90;2.70;;;;;;;23.57;66.39;95089.03;5012115;28;20297;-88
2023/07/15 02:27:17;;;;;;;2.90;2.70;;;;;;;23.54;66.55;95086.94;5009095;28;20211;-88
2023/07/15 02:29:44;;;;;;;3.83;2.80;;;;;;;23.52;66.55;95091.69;5011479;28;20578;-88
2023/07/15 02:32:17;;;;;;;3.35;2.72;;;;;;;23.51;66.91;95092.72;5011464;28;20195;-88
2023/07/15 02:34:43;;;;;;;3.10;2.60;;;;;;;23.58;66.17;95080.09;5011698;28;20746;-88
2023/07/15 02:37:10;;;;;;;2.83;2.63;;;;;;;23.62;66.35;95079.28;5011511;28;20191;-88
2023/07/15 02:39:37;;;;;;;4.05;2.67;;;;;;;23.65;66.51;95081.38;5011608;28;20622;-88
2023/07/15 02:42:04;;;;;;;4.80;2.70;;;;;;;23.54;67.35;95106.13;5009219;28;20667;-88
2023/07/15 02:44:33;;;;;;;2.70;2.50;;;;;;;23.52;67.01;95092.47;5011541;28;20230;-88
2023/07/15 02:47:00;;;;;;;2.83;2.60;;;;;;;23.55;67.18;95093.78;5011603;28;20582;-88
2023/07/15 02:49:28;;;;;;;3.20;2.90;;;;;;;23.57;66.69;95089.81;5011029;28;20211;-88
2023/07/15 02:51:54;;;;;;;3.92;2.67;;;;;;;23.61;66.40;95090.06;5011161;28;20203;-88
2023/07/15 02:54:21;;;;;;;2.90;2.60;;;;;;;23.63;66.62;95082.72;5011231;28;20222;-88
2023/07/15 02:56:47;;;;;;;3.55;2.70;;;;;;;23.61;66.72;95090.88;5011149;28;20203;-90
2023/07/15 02:59:14;;;;;;;2.67;2.47;;;;;;;23.58;66.83;95095.88;5009623;28;20230;-88
2023/07/15 03:01:41;;;;;;;2.85;2.65;;;;;;;23.54;66.66;95092.19;5010308;28;20245;-89
2023/07/15 03:04:07;;;;;;;2.88;2.53;;;;;;;23.52;66.58;95092.47;5014765;28;20194;-88
2023/07/15 03:06:35;;;;;;;2.75;2.55;;;;;;;23.46;67.26;95104.03;5023257;28;20190;-88
2023/07/15 03:09:01;;;;;;;2.67;2.47;;;;;;;23.48;67.02;95096.66;5011064;28;20223;-88
2023/07/15 03:11:28;;;;;;;2.63;2.42;;;;;;;23.51;67.08;95097.97;5009535;28;20215;-88
2023/07/15 03:13:54;;;;;;;2.80;2.60;;;;;;;23.47;66.98;95099.56;5009778;28;20269;-88
2023/07/15 03:16:22;;;;;;;2.45;2.25;;;;;;;23.45;67.09;95104.31;5010767;28;20724;-87
2023/07/15 03:18:48;;;;;;;2.80;2.60;;;;;;;23.49;66.78;95092.19;5011545;28;20317;-88
2023/07/15 03:21:15;;;;;;;2.90;2.70;;;;;;;23.53;66.38;95083.53;5011676;28;20226;-87
2023/07/15 03:23:42;;;;;;;2.60;2.40;;;;;;;23.57;67.00;95084.56;5007016;28;20214;-86
2023/07/15 03:26:09;;;;;;;4.30;2.90;;;;;;;23.62;66.86;95091.66;5011207;28;20213;-86
2023/07/15 03:28:35;;;;;;;2.80;2.60;;;;;;;23.67;66.09;95076.63;5011065;28;20871;-86
2023/07/15 03:31:02;;;;;;;4.40;2.70;;;;;;;23.66;66.41;95074.28;5009518;28;20207;-86
2023/07/15 03:33:28;;;;;;;3.80;2.50;;;;;;;23.60;66.64;95076.16;5010660;28;20202;-86
2023/07/15 03:35:54;;;;;;;3.20;2.90;;;;;;;23.66;66.15;95075.06;5010965;28;20197;-86
2023/07/15 03:38:21;;;;;;;3.15;2.83;;;;;;;23.70;66.09;95067.41;5010726;28;20630;-86
2023/07/15 03:40:51;;;;;;;3.92;2.63;;;;;;;23.69;66.25;95066.63;5010998;28;20213;-86
2023/07/15 03:43:17;;;;;;;3.00;2.70;;;;;;;23.74;65.76;95066.59;5010618;28;20205;-87
2023/07/15 03:45:43;;;;;;;2.97;2.78;;;;;;;23.79;65.78;95057.91;5010698;28;20207;-87
2023/07/15 03:48:10;;;;;;;3.50;2.60;;;;;;;23.80;65.11;95037.66;5008715;28;20688;-86
2023/07/15 03:50:36;;;;;;;2.85;2.60;;;;;;;23.80;64.77;95035.81;5010835;28;20202;-86
2023/07/15 03:53:03;;;;;;;2.90;2.55;;;;;;;23.77;65.06;95050.28;5010150;28;20861;-85
2023/07/15 03:55:29;;;;;;;3.83;2.85;;;;;;;23.74;64.96;95050.84;5009992;28;20198;-86
2023/07/15 03:57:57;;;;;;;4.35;2.67;;;;;;;23.76;64.98;95043.47;5010463;28;20262;-86
2023/07/15 04:00:23;;;;;;;3.70;2.47;;;;;;;23.79;64.77;95036.09;5010454;28;20221;-86
2023/07/15 04:02:53;;;;;;;5.30;2.63;;;;;;;23.77;64.47;95031.88;5009368;28;21010;-86
2023/07/15 04:05:19;;;;;;;2.90;2.70;;;;;;;23.78;64.90;95032.69;5015763;28;20297;-87
2023/07/15 04:07:47;;;;;;;2.70;2.50;;;;;;;23.80;64.53;95022.69;4993098;28;20219;-87
2023/07/15 04:10:14;;;;;;;2.60;2.40;;;;;;;23.87;64.66;95031.03;4990148;28;20213;-88
2023/07/15 04:12:40;;;;;;;3.25;2.47;;;;;;;23.89;64.02;95005.25;5000190;28;20206;-87
2023/07/15 04:15:09;;;;;;;2.90;2.70;;;;;;;23.89;63.51;95002.63;5010362;28;20195;-86
2023/07/15 04:17:35;;;;;;;2.60;2.40;;;;;;;23.86;63.79;95010.28;5010818;28;20218;-84
2023/07/15 04:20:07;;;;;;;3.08;2.80;;;;;;;23.87;63.61;95004.72;5008448;28;20715;-86
2023/07/15 04:22:37;;;;;;;2.97;2.28;;;;;;;23.89;63.85;95007.09;5013154;28;20205;-85
2023/07/15 04:25:03;;;;;;;2.75;2.55;;;;;;;23.93;63.42;95001.00;5010348;28;20242;-86
2023/07/15 04:27:30;;;;;;;2.78;2.33;;;;;;;23.97;63.52;94986.25;5010456;28;20207;-83
2023/07/15 04:29:57;;;;;;;2.95;2.60;;;;;;;23.97;63.43;94998.63;5010560;28;20199;-82
2023/07/15 04:32:25;;;;;;;2.88;2.67;;;;;;;23.99;63.41;94991.25;5010112;28;20256;-82
2023/07/15 04:34:52;;;;;;;2.78;2.33;;;;;;;24.00;62.87;94980.47;5008516;28;20207;-85
2023/07/15 04:37:18;;;;;;;4.70;2.90;;;;;;;24.03;62.52;94979.13;5009452;28;20215;-86
2023/07/15 04:39:45;;;;;;;2.85;2.60;;;;;;;24.04;62.71;94972.81;5009493;28;20750;-86
2023/07/15 04:42:11;;;;;;;3.85;2.72;;;;;;;24.09;62.34;94967.47;5008932;28;20215;-86
2023/07/15 04:44:38;;;;;;;3.35;2.60;;;;;;;24.14;62.32;94961.41;5009664;28;20195;-86
2023/07/15 04:47:05;;;;;;;2.85;2.25;;;;;;;24.21;62.12;94953.97;5009042;28;20584;-86
2023/07/15 04:49:32;;;;;;;3.83;2.42;;;;;;;24.19;62.04;94940.31;5009518;28;20397;-86
2023/07/15 04:51:59;;;;;;;3.33;2.50;;;;;;;24.18;61.65;94936.91;5007575;28;20561;-86
2023/07/15 04:54:25;;;;;;;2.60;2.40;;;;;;;24.26;61.44;94938.94;5008740;28;20219;-87
2023/07/15 04:56:52;;;;;;;2.58;2.38;;;;;;;24.32;61.21;94934.44;5009023;28;20206;-86
2023/07/15 04:59:19;;;;;;;3.83;2.50;;;;;;;24.38;61.02;94925.44;5008826;28;20242;-86
2023/07/15 05:01:45;;;;;;;3.38;2.55;;;;;;;24.44;60.83;94917.19;5008860;28;20257;-86
2023/07/15 05:04:12;;;;;;;3.97;2.63;;;;;;;24.45;60.69;94913.47;5013191;28;20707;-87
2023/07/15 05:06:40;;;;;;;4.28;2.50;;;;;;;24.50;60.17;94907.38;5020298;28;20206;-86
2023/07/15 05:09:07;;;;;;;4.05;2.67;;;;;;;24.56;60.34;94900.22;5006885;28;20218;-89
2023/07/15 05:11:33;;;;;;;4.93;2.80;;;;;;;24.66;59.79;94894.81;5007977;28;20210;-89
2023/07/15 05:14:02;;;;;;;5.80;2.53;;;;;;;24.73;59.82;94890.81;5008638;28;20608;-89
2023/07/15 05:16:29;;;;;;;3.22;2.78;;;;;;;24.84;59.90;94894.06;5008487;28;20226;-89
2023/07/15 05:18:55;;;;;;;5.57;2.90;;;;;;;24.93;59.27;94881.88;5008202;28;20357;-89
2023/07/15 05:21:22;;;;;;;5.53;5.10;;;;;;;25.00;58.86;94856.00;5013222;28;20222;-89
2023/07/15 05:23:50;;;;;;;6.45;5.85;;;;;;;25.05;58.97;94861.16;5008823;28;20225;-88
2023/07/15 05:26:16;;;;;;;4.57;3.63;;;;;;;25.12;58.81;94853.72;5000818;28;20204;-89
2023/07/15 05:28:42;;;;;;;6.07;2.88;;;;;;;25.22;58.73;94842.22;4989411;28;20216;-89
2023/07/15 05:31:09;;;;;;;4.75;2.53;;;;;;;25.27;57.95;94823.69;4989355;28;20238;-88
2023/07/15 05:33:38;;;;;;;3.45;2.50;;;;;;;25.28;57.45;94806.03;4989293;28;20577;-90
2023/07/15 05:36:05;;;;;;;3.40;2.53;;;;;;;25.38;57.47;94805.91;4993425;28;20812;-88
2023/07/15 05:38:42;;;;;;;2.63;2.30;;;;;;;25.44;56.81;94779.16;5008406;28;20234;-89
2023/07/15 05:41:11;;;;;;;4.07;2.47;;;;;;;25.53;57.12;94781.91;5007050;28;20233;-89
2023/07/15 05:43:37;;;;;;;6.15;5.65;;;;;;;25.57;56.42;94764.44;5008377;28;20288;-88
2023/07/15 05:46:04;;;;;;;3.17;2.97;;;;;;;25.62;56.23;94755.66;5008619;28;20680;-88
2023/07/15 05:48:31;;;;;;;2.78;2.58;;;;;;;25.68;56.21;94746.59;5008693;28;20674;-89
2023/07/15 05:50:57;;;;;;;2.75;2.55;;;;;;;25.78;55.95;94749.84;5008445;28;20668;-89
2023/07/15 05:53:24;;;;;;;2.50;2.30;;;;;;;25.84;55.93;94734.69;5008147;28;20214;-88
2023/07/15 05:55:50;;;;;;;3.80;2.15;;;;;;;25.88;55.63;94717.22;5006696;28;20213;-89
2023/07/15 05:58:18;;;;;;;2.10;2.00;;;;;;;25.92;55.18;94702.38;5008386;28;20615;-89
2023/07/15 06:00:45;;;;;;;2.50;2.30;;;;;;;26.00;54.86;94690.34;5008819;28;20290;-89
2023/07/15 06:03:11;;;;;;;2.42;2.22;;;;;;;26.09;54.80;94676.16;5008498;28;20214;-88
2023/07/15 06:05:38;;;;;;;2.65;2.40;;;;;;;26.15;54.07;94653.88;5025045;28;20804;-89
2023/07/15 06:08:05;;;;;;;2.45;2.25;;;;;;;26.20;54.02;94636.34;5012461;28;20227;-89
2023/07/15 06:10:31;;;;;;;2.38;2.15;;;;;;;26.26;53.35;94625.41;5007500;28;20294;-90
2023/07/15 06:12:57;;;;;;;2.63;2.42;;;;;;;26.34;53.68;94631.88;5006685;28;20214;-89
2023/07/15 06:15:28;;;;;;;2.50;2.20;;;;;;;26.42;53.63;94642.47;5008059;28;20203;-90
2023/07/15 06:17:55;;;;;;;2.30;2.10;;;;;;;26.52;53.88;94649.41;5008239;28;20219;-89
2023/07/15 06:20:22;;;;;;;2.40;2.20;;;;;;;26.58;54.07;94658.75;5008214;28;20229;-89
2023/07/15 06:22:48;;;;;;;2.88;2.60;;;;;;;26.66;54.07;94660.69;5007858;28;20195;-89
2023/07/15 06:25:16;;;;;;;2.55;2.30;;;;;;;26.71;53.28;94620.16;5007994;28;20202;-88
2023/07/15 06:27:42;;;;;;;2.13;2.00;;;;;;;26.82;53.51;94634.69;5006736;28;20225;-90
2023/07/15 06:30:10;;;;;;;2.25;2.10;;;;;;;26.89;52.98;94599.91;5007583;28;20199;-88
2023/07/15 06:32:39;;;;;;;2.50;2.30;;;;;;;26.93;52.55;94577.88;5008040;28;20195;-88
2023/07/15 06:35:06;;;;;;;2.50;2.30;;;;;;;27.03;52.21;94561.00;5008284;28;20199;-88
2023/07/15 06:37:53;;;;;;;2.40;2.20;;;;;;;27.05;51.44;94521.84;5009298;28;20210;-89
2023/07/15 06:43:17;;;;;;;2.47;2.28;;;;;;;27.09;50.48;94480.50;5009807;28;20214;-89
2023/07/15 06:49:27;;;;;;;2.70;2.50;;;;;;;27.30;51.95;94517.72;4967832;28;20215;-89
2023/07/15 06:56:26;;;;;;;5.60;5.10;;;;;;;27.52;49.17;94407.31;4947458;29;20257;-92
2023/07/15 07:20:49;;;;;;;;;;;;;;;;;;;;;
2023/07/15 07:23:55;;;;;;;2.70;2.50;;;;;;;28.28;47.00;94271.00;4908633;29;20217;-88
2023/07/15 07:26:29;;;;;;;2.22;2.13;;;;;;;28.31;48.18;94324.06;4952616;28;20621;-89
2023/07/15 07:28:55;;;;;;;2.83;2.30;;;;;;;28.35;47.24;94272.03;5009968;28;20226;-89
2023/07/15 07:31:22;;;;;;;4.40;2.20;;;;;;;28.46;47.48;94275.09;5009948;28;20198;-88
2023/07/15 07:33:49;;;;;;;3.22;2.17;;;;;;;28.56;46.93;94263.34;5008453;28;20206;-87
2023/07/15 07:36:16;;;;;;;3.92;2.38;;;;;;;28.69;47.20;94271.03;5009865;28;20210;-88
2023/07/15 07:38:44;;;;;;;2.67;2.17;;;;;;;28.84;46.76;94261.78;5010073;28;20215;-87
2023/07/15 07:41:11;;;;;;;2.20;2.00;;;;;;;28.90;44.80;94141.22;5009965;28;20199;-87
2023/07/15 07:46:57;;;;;;;2.33;2.10;;;;;;;29.14;45.25;94143.16;5008728;28;20345;-86
2023/07/15 07:49:25;;;;;;;2.05;1.95;;;;;;;29.27;43.68;94069.72;5008854;28;20607;-86
2023/07/15 07:51:52;;;;;;;2.28;2.08;;;;;;;29.40;43.63;94069.44;5010390;28;20676;-88
2023/07/15 07:54:19;;;;;;;2.10;1.90;;;;;;;29.48;41.75;93961.66;5010485;28;20285;-85
2023/07/15 07:56:47;;;;;;;3.05;2.10;;;;;;;29.54;41.67;93982.31;5010442;28;20203;-89
2023/07/15 07:59:13;;;;;;;11.27;2.30;;;;;;;29.57;42.24;94002.09;5009486;28;20231;-89
2023/07/15 08:01:40;;;;;;;1.80;1.63;;;;;;;29.63;40.35;93910.59;5009935;28;20253;-87
2023/07/15 08:04:08;;;;;;;1.98;1.77;;;;;;;29.82;39.77;93883.41;5006874;28;20677;-88
2023/07/15 08:06:36;;;;;;;1.85;1.60;;;;;;;29.99;39.01;93818.66;5007755;28;20238;-84
2023/07/15 08:09:03;;;;;;;1.80;1.70;;;;;;;30.00;38.89;93804.28;5009451;28;20226;-87
2023/07/15 08:11:29;;;;;;;1.95;1.80;;;;;;;30.02;38.36;93784.22;5005319;28;20449;-86
2023/07/15 08:13:56;;;;;;;2.08;1.88;;;;;;;29.99;38.05;93768.25;5011407;28;20199;-85
2023/07/15 08:17:06;;;;;;;2.08;1.98;;;;;;;30.18;39.41;93822.19;5009851;28;20572;-92
2023/07/15 08:19:35;;;;;;;2.00;1.70;;;;;;;30.27;37.46;93745.00;5009770;28;20218;-88
2023/07/15 08:22:12;;;;;;;3.17;1.77;;;;;;;30.43;38.52;93782.91;5009356;28;20206;-89
2023/07/15 08:24:38;;;;;;;3.00;1.80;;;;;;;30.53;37.66;93715.22;5011749;28;20210;-92
2023/07/15 08:53:15;;;;;;;4.50;1.90;;;;;;;31.22;33.60;93482.25;4876079;28;20232;-90
2023/07/15 08:55:54;;;;;;;4.13;1.75;;;;;;;31.23;33.10;93444.66;4986497;28;20226;-88
2023/07/15 09:03:38;;;;;;;2.00;1.90;;;;;;;31.56;34.15;93512.34;4958120;26;20222;-87
2023/07/15 09:06:08;;;;;;;4.65;1.90;;;;;;;31.59;33.10;93482.38;5010366;28;20198;-87
2023/07/15 09:15:50;;;;;;;1.65;1.55;;;;;;;32.01;32.80;93481.41;4960599;28;20222;-89
2023/07/15 09:18:18;;;;;;;3.50;3.00;;;;;;;32.19;34.32;93554.28;5003733;28;20238;-86
2023/07/15 09:20:45;;;;;;;2.10;2.00;;;;;;;32.23;32.75;93468.00;5010062;28;20320;-85
2023/07/15 09:23:12;;;;;;;2.22;2.03;;;;;;;32.24;32.72;93479.41;5009250;28;20203;-85
2023/07/15 09:25:38;;;;;;;1.90;1.80;;;;;;;32.24;32.20;93463.44;5007911;28;20202;-86
2023/07/15 09:28:09;;;;;;;1.83;1.73;;;;;;;32.23;31.76;93417.41;5009295;28;20604;-86
2023/07/15 09:30:40;;;;;;;2.70;1.80;;;;;;;32.26;32.36;93455.84;5009445;28;20191;-86
2023/07/15 09:33:07;;;;;;;1.88;1.77;;;;;;;32.32;32.76;93450.97;5010325;28;20289;-84
2023/07/15 09:35:39;;;;;;;2.17;1.98;;;;;;;32.36;31.79;93406.47;5009839;28;20199;-86
2023/07/15 09:38:10;;;;;;;3.53;1.77;;;;;;;32.40;31.38;93394.72;5012674;28;20229;-87
2023/07/15 09:40:42;;;;;;;2.15;1.83;;;;;;;32.54;31.46;93397.50;5012495;28;20288;-87
2023/07/15 09:43:08;;;;;;;2.65;1.83;;;;;;;32.59;31.75;93380.41;5010333;28;20238;-86
2023/07/15 09:45:36;;;;;;;4.18;1.75;;;;;;;32.81;31.81;93424.78;5012390;28;20206;-87
2023/07/15 09:51:42;;;;;;;2.28;1.90;;;;;;;32.95;31.56;93370.78;4873586;29;20206;-91
2023/07/15 12:40:46;;;;;;;2.30;2.10;;;;;;;35.67;27.42;93090.44;4755512;23;20789;-90
2023/07/15 13:11:31;;;;;;;2.30;2.10;;;;;;;36.45;27.00;93070.91;5007075;28;20206;-88
2023/07/15 13:14:25;;;;;;;1.83;1.73;;;;;;;36.32;26.43;93029.72;5003784;28;20229;-89
2023/07/15 13:48:49;;;;;;;2.25;2.05;;;;;;;36.57;26.25;93037.44;5124173;23;20257;-87
2023/07/15 14:20:45;;;;;;;3.00;2.25;;;;;;;36.58;26.04;92993.38;5348704;23;20901;-89
2023/07/15 14:24:07;;;;;;;2.40;2.20;;;;;;;36.63;26.26;93009.78;5011531;28;20194;-90
2023/07/15 14:26:35;;;;;;;2.65;2.30;;;;;;;36.62;26.29;93010.94;4911168;29;20205;-89
2023/07/15 14:29:22;;;;;;;2.70;2.28;;;;;;;36.72;26.80;93056.81;4991752;28;20297;-90
2023/07/15 14:32:53;;;;;;;3.30;3.10;;;;;;;36.89;27.25;93096.81;4982053;28;20197;-91
2023/07/15 14:35:19;;;;;;;4.85;4.50;;;;;;;37.07;27.46;93110.00;5020264;28;20198;-86
2023/07/15 14:37:46;;;;;;;4.60;4.30;;;;;;;37.14;26.91;93077.66;5022204;28;20194;-87
2023/07/15 14:40:29;;;;;;;2.65;2.45;;;;;;;37.18;26.28;93024.72;5021248;28;20299;-87
2023/07/15 14:43:05;;;;;;;2.60;2.40;;;;;;;37.24;26.55;93038.47;5018886;28;20571;-87
2023/07/15 14:48:44;;;;;;;1.85;1.75;;;;;;;37.14;25.82;92991.06;5006128;28;20264;-88
2023/07/15 14:51:14;;;;;;;2.20;2.10;;;;;;;37.00;26.06;92984.75;5010951;28;20616;-88
2023/07/15 14:54:16;;;;;;;2.70;2.50;;;;;;;36.93;25.87;92995.59;5019106;28;20229;-89
2023/07/15 14:57:10;;;;;;;2.42;2.22;;;;;;;36.93;25.84;92976.81;5009216;28;20201;-92
2023/07/15 15:00:21;;;;;;;2.95;2.28;;;;;;;36.82;25.70;92986.16;5025483;28;20783;-91
2023/07/15 15:03:22;;;;;;;2.35;2.10;;;;;;;36.92;27.19;93063.06;5016962;28;20202;-88
2023/07/15 15:19:00;;;;;;;2.15;2.05;;;;;;;36.83;26.36;93023.31;4872825;29;20235;-87
2023/07/15 15:21:54;;;;;;;2.00;1.90;;;;;;;36.80;27.59;93093.09;4908744;29;20269;-88
2023/07/15 15:31:26;;;;;;;3.75;3.45;;;;;;;36.88;26.07;93011.38;4820722;29;20216;-89
2023/07/15 15:41:07;;;;;;;2.50;2.30;;;;;;;36.37;26.77;93031.97;5262079;23;20230;-87
2023/07/15 15:46:57;;;;;;;2.45;2.25;;;;;;;35.83;27.79;93106.75;5004606;28;20198;-86
2023/07/15 15:49:25;;;;;;;3.88;2.67;;;;;;;35.69;27.63;93112.22;5058716;23;20233;-87
2023/07/15 15:51:52;;;;;;;2.97;2.10;;;;;;;35.56;28.48;93117.31;5015460;28;20198;-85
2023/07/15 15:54:18;;;;;;;2.35;2.15;;;;;;;35.41;28.43;93115.88;5019944;28;20199;-85
2023/07/15 15:56:44;;;;;;;3.30;2.15;;;;;;;35.30;28.26;93123.97;5017464;28;20195;-86
2023/07/15 15:59:11;;;;;;;1.90;1.80;;;;;;;35.18;28.48;93148.50;5019340;28;20217;-87
2023/07/15 16:01:37;;;;;;;2.50;2.30;;;;;;;35.10;29.12;93184.47;5020393;28;20229;-88
2023/07/15 16:04:45;;;;;;;2.53;2.33;;;;;;;34.99;29.39;93186.44;5019615;28;20207;-90
2023/07/15 16:07:11;;;;;;;3.25;2.50;;;;;;;34.94;29.38;93203.66;5007900;28;20202;-90
2023/07/15 16:09:38;;;;;;;5.80;5.40;;;;;;;35.07;28.98;93177.22;5015066;28;20254;-86
2023/07/15 16:12:05;;;;;;;3.33;2.92;;;;;;;35.20;28.36;93151.56;5017291;28;20202;-87
2023/07/15 16:14:31;;;;;;;2.38;2.20;;;;;;;35.36;28.40;93158.38;5017348;28;20195;-88
2023/07/15 16:16:58;;;;;;;2.88;2.00;;;;;;;35.40;28.06;93092.19;5009248;28;20211;-89
2023/07/15 16:19:24;;;;;;;2.22;2.03;;;;;;;35.48;27.42;93077.59;5009343;28;20222;-87
2023/07/15 16:21:52;;;;;;;2.10;1.95;;;;;;;35.47;27.84;93082.19;5008484;28;20223;-87
2023/07/15 16:24:19;;;;;;;2.00;1.90;;;;;;;35.50;28.35;93126.91;5006997;28;20210;-86
2023/07/15 16:26:47;;;;;;;2.88;2.63;;;;;;;35.53;27.75;93096.66;5009290;28;20202;-90
2023/07/15 16:29:13;;;;;;;2.10;2.00;;;;;;;35.50;27.46;93068.00;5008533;28;20215;-88
2023/07/15 16:31:40;;;;;;;2.85;2.15;;;;;;;35.50;27.55;93080.63;5010608;28;20202;-88
2023/07/15 16:34:06;;;;;;;2.38;2.00;;;;;;;35.52;27.55;93075.66;5008578;28;20289;-88
2023/07/15 16:36:32;;;;;;;2.45;1.92;;;;;;;35.50;27.11;93064.56;5018246;28;20217;-88
2023/07/15 16:39:00;;;;;;;2.25;2.05;;;;;;;35.45;27.45;93073.03;5018258;28;20222;-85
2023/07/15 16:41:27;;;;;;;2.10;2.00;;;;;;;35.43;27.27;93048.56;5013657;28;20222;-87
2023/07/15 16:43:54;;;;;;;2.28;2.08;;;;;;;35.39;27.26;93040.59;5008920;28;20203;-89
2023/07/15 16:46:21;;;;;;;2.30;2.10;;;;;;;35.35;27.63;93077.31;5009733;28;20557;-87
2023/07/15 16:48:48;;;;;;;3.00;2.00;;;;;;;35.31;27.77;93074.66;5008879;28;20234;-91
2023/07/15 16:51:14;;;;;;;2.17;2.00;;;;;;;35.27;27.00;93049.84;5009948;28;20199;-88
2023/07/15 16:53:45;;;;;;;4.93;4.55;;;;;;;35.25;27.35;93062.06;5009085;28;20639;-88
2023/07/15 16:56:17;;;;;;;2.85;2.65;;;;;;;35.23;28.01;93083.84;5006081;28;20198;-88
2023/07/15 16:58:44;;;;;;;2.22;2.13;;;;;;;35.16;27.24;93061.75;5008942;28;20723;-87
2023/07/15 17:01:29;;;;;;;3.20;2.20;;;;;;;35.14;28.12;93090.81;5009365;28;20226;-87
2023/07/15 17:06:52;;;;;;;3.08;2.17;;;;;;;34.94;27.11;93058.47;4957024;28;20296;-89
2023/07/15 17:12:36;;;;;;;2.25;2.03;;;;;;;34.78;28.26;93111.66;5005393;28;20933;-90
2023/07/15 17:15:04;;;;;;;2.58;2.08;;;;;;;34.69;28.19;93111.28;5007630;28;20203;-93
2023/07/15 17:17:59;;;;;;;2.28;2.17;;;;;;;34.57;28.42;93113.25;5009188;28;20261;-88
2023/07/15 17:21:10;;;;;;;2.40;2.25;;;;;;;34.47;28.50;93140.75;5008503;28;20195;-91
2023/07/15 17:24:31;;;;;;;;;;;;;;;;;;;;;
2023/07/15 17:29:57;;;;;;;2.78;2.58;;;;;;;34.19;28.79;93159.53;5011926;28;20210;-86
2023/07/15 17:32:28;;;;;;;2.88;2.67;;;;;;;34.17;29.17;93170.59;5017009;28;20191;-86
2023/07/15 17:38:00;;;;;;;2.72;2.33;;;;;;;34.10;28.54;93132.44;5016154;28;20205;-87
2023/07/15 17:43:20;;;;;;;2.47;2.28;;;;;;;34.01;28.79;93127.50;4997345;28;20625;-86
2023/07/15 17:45:55;;;;;;;1.95;1.85;;;;;;;34.00;28.69;93125.22;5016442;28;20206;-86
2023/07/15 17:48:23;;;;;;;2.60;2.40;;;;;;;33.97;28.50;93134.75;5017188;28;20288;-87
2023/07/15 17:51:21;;;;;;;;;;;;;;;;;;;;;
2023/07/15 17:53:48;;;;;;;2.10;2.00;;;;;;;33.89;28.88;93150.00;5019355;28;20206;-86
2023/07/15 17:56:17;;;;;;;2.30;2.10;;;;;;;33.87;28.30;93127.50;5016626;28;20256;-86
2023/07/15 17:58:45;;;;;;;2.45;2.17;;;;;;;33.81;28.67;93129.81;5019865;28;20218;-87
2023/07/15 18:01:15;;;;;;;2.38;2.15;;;;;;;33.77;28.97;93145.06;5014676;28;20225;-86
2023/07/15 18:03:42;;;;;;;2.50;2.30;;;;;;;33.74;28.77;93159.16;5013893;28;20195;-87
2023/07/15 18:06:16;;;;;;;3.15;2.20;;;;;;;33.71;29.27;93164.50;5016073;28;20293;-89
2023/07/15 18:08:43;;;;;;;2.83;2.38;;;;;;;33.66;29.19;93168.31;5019802;28;20221;-87
2023/07/15 18:11:21;;;;;;;2.40;2.20;;;;;;;33.65;29.11;93161.44;5014751;28;20218;-87
2023/07/15 18:14:08;;;;;;;3.03;2.30;;;;;;;33.62;28.79;93160.31;5017188;28;20234;-89